sensor_id;sensor_type;location;lat;lon;timestamp;temperature;humidity
3202;DHT22;34843;48.744;8.958;2022-08-06T00:02:18;19.10;99.90
3202;DHT22;34843;48.744;8.958;2022-08-06T00:04:46;19.10;99.90
3202;DHT22;34843;48.744;8.958;2022-08-06T00:07:11;19.00;99.90
3202;DHT22;34843;48.744;8.958;2022-08-06T00:09:37;19.00;99.90
3202;DHT22;34843;48.744;8.958;2022-08-06T00:12:04;19.00;99.90
3202;DHT22;34843;48.744;8.958;2022-08-06T00:14:30;19.10;99.90
3202;DHT22;34843;48.744;8.958;2022-08-06T00:16:56;19.00;99.90
3202;DHT22;34843;48.744;8.958;2022-08-06T00:19:23;18.90;99.90
3202;DHT22;34843;48.744;8.958;2022-08-06T00:21:49;19.00;99.90
3202;DHT22;34843;48.744;8.958;2022-08-06T00:24:15;19.00;99.90
3202;DHT22;34843;48.744;8.958;2022-08-06T00:26:40;19.00;99.90
3202;DHT22;34843;48.744;8.958;2022-08-06T00:29:06;19.00;99.90
3202;DHT22;34843;48.744;8.958;2022-08-06T00:31:33;18.90;99.90
3202;DHT22;34843;48.744;8.958;2022-08-06T00:33:58;19.00;99.90
3202;DHT22;34843;48.744;8.958;2022-08-06T00:36:27;18.90;99.90
3202;DHT22;34843;48.744;8.958;2022-08-06T00:38:53;18.90;99.90
3202;DHT22;34843;48.744;8.958;2022-08-06T00:41:20;18.80;99.90
3202;DHT22;34843;48.744;8.958;2022-08-06T00:43:46;18.90;99.90
3202;DHT22;34843;48.744;8.958;2022-08-06T00:46:12;19.00;99.90
3202;DHT22;34843;48.744;8.958;2022-08-06T00:48:38;19.00;99.90
3202;DHT22;34843;48.744;8.958;2022-08-06T00:51:04;19.00;99.90
3202;DHT22;34843;48.744;8.958;2022-08-06T00:53:29;19.00;99.90
3202;DHT22;34843;48.744;8.958;2022-08-06T00:55:55;19.00;99.90
3202;DHT22;34843;48.744;8.958;2022-08-06T00:58:21;19.00;99.90
3202;DHT22;34843;48.744;8.958;2022-08-06T01:00:46;18.90;99.90
3202;DHT22;34843;48.744;8.958;2022-08-06T01:03:12;19.00;99.90
3202;DHT22;34843;48.744;8.958;2022-08-06T01:05:44;18.90;99.90
3202;DHT22;34843;48.744;8.958;2022-08-06T01:08:11;18.90;99.90
3202;DHT22;34843;48.744;8.958;2022-08-06T01:10:37;18.80;99.90
3202;DHT22;34843;48.744;8.958;2022-08-06T01:13:02;18.80;99.90
3202;DHT22;34843;48.744;8.958;2022-08-06T01:15:28;18.80;99.90
3202;DHT22;34843;48.744;8.958;2022-08-06T01:18:10;18.70;99.90
3202;DHT22;34843;48.744;8.958;2022-08-06T01:20:51;18.70;99.90
3202;DHT22;34843;48.744;8.958;2022-08-06T01:26:26;18.60;99.90
3202;DHT22;34843;48.744;8.958;2022-08-06T01:29:26;18.60;99.90
3202;DHT22;34843;48.744;8.958;2022-08-06T01:34:36;18.60;99.90
3202;DHT22;34843;48.744;8.958;2022-08-06T01:37:17;18.60;99.90
3202;DHT22;34843;48.744;8.958;2022-08-06T01:39:50;18.60;99.90
3202;DHT22;34843;48.744;8.958;2022-08-06T01:42:19;18.60;99.90
3202;DHT22;34843;48.744;8.958;2022-08-06T01:44:47;18.70;99.90
3202;DHT22;34843;48.744;8.958;2022-08-06T01:47:17;18.70;99.90
3202;DHT22;34843;48.744;8.958;2022-08-06T01:49:49;18.70;99.90
3202;DHT22;34843;48.744;8.958;2022-08-06T01:52:17;18.70;99.90
3202;DHT22;34843;48.744;8.958;2022-08-06T01:54:46;18.70;99.90
3202;DHT22;34843;48.744;8.958;2022-08-06T01:57:13;18.60;99.90
3202;DHT22;34843;48.744;8.958;2022-08-06T01:59:45;18.50;99.90
3202;DHT22;34843;48.744;8.958;2022-08-06T02:02:16;18.60;99.90
3202;DHT22;34843;48.744;8.958;2022-08-06T02:04:45;18.60;99.90
3202;DHT22;34843;48.744;8.958;2022-08-06T02:07:12;18.60;99.90
3202;DHT22;34843;48.744;8.958;2022-08-06T02:09:40;18.50;99.90
3202;DHT22;34843;48.744;8.958;2022-08-06T02:12:10;18.50;99.90
3202;DHT22;34843;48.744;8.958;2022-08-06T02:14:45;18.50;99.90
3202;DHT22;34843;48.744;8.958;2022-08-06T02:17:12;18.50;99.90
3202;DHT22;34843;48.744;8.958;2022-08-06T02:19:44;18.50;99.90
3202;DHT22;34843;48.744;8.958;2022-08-06T02:22:10;18.40;99.90
3202;DHT22;34843;48.744;8.958;2022-08-06T02:24:37;18.30;99.90
3202;DHT22;34843;48.744;8.958;2022-08-06T02:27:05;18.30;99.90
3202;DHT22;34843;48.744;8.958;2022-08-06T02:29:33;18.20;99.90
3202;DHT22;34843;48.744;8.958;2022-08-06T02:31:59;18.10;99.90
3202;DHT22;34843;48.744;8.958;2022-08-06T02:34:25;18.00;99.90
3202;DHT22;34843;48.744;8.958;2022-08-06T02:37:06;18.00;99.90
3202;DHT22;34843;48.744;8.958;2022-08-06T02:39:38;17.90;99.90
3202;DHT22;34843;48.744;8.958;2022-08-06T02:42:14;17.80;99.90
3202;DHT22;34843;48.744;8.958;2022-08-06T02:44:44;17.90;99.90
3202;DHT22;34843;48.744;8.958;2022-08-06T02:49:54;17.90;99.90
3202;DHT22;34843;48.744;8.958;2022-08-06T02:52:27;17.80;99.90
3202;DHT22;34843;48.744;8.958;2022-08-06T02:54:56;17.90;99.90
3202;DHT22;34843;48.744;8.958;2022-08-06T02:57:31;17.80;99.90
3202;DHT22;34843;48.744;8.958;2022-08-06T03:00:01;17.90;99.90
3202;DHT22;34843;48.744;8.958;2022-08-06T03:02:29;17.90;99.90
3202;DHT22;34843;48.744;8.958;2022-08-06T03:04:57;17.90;99.90
3202;DHT22;34843;48.744;8.958;2022-08-06T03:07:26;17.90;99.90
3202;DHT22;34843;48.744;8.958;2022-08-06T03:09:53;17.90;99.90
3202;DHT22;34843;48.744;8.958;2022-08-06T03:12:20;17.80;99.90
3202;DHT22;34843;48.744;8.958;2022-08-06T03:14:47;17.80;99.90
3202;DHT22;34843;48.744;8.958;2022-08-06T03:17:13;17.70;99.90
3202;DHT22;34843;48.744;8.958;2022-08-06T03:19:41;17.70;99.90
3202;DHT22;34843;48.744;8.958;2022-08-06T03:22:09;17.60;99.90
3202;DHT22;34843;48.744;8.958;2022-08-06T03:24:37;17.60;99.90
3202;DHT22;34843;48.744;8.958;2022-08-06T03:27:04;17.60;99.90
3202;DHT22;34843;48.744;8.958;2022-08-06T03:29:31;17.60;99.90
3202;DHT22;34843;48.744;8.958;2022-08-06T03:31:57;17.60;99.90
3202;DHT22;34843;48.744;8.958;2022-08-06T03:34:23;17.50;99.90
3202;DHT22;34843;48.744;8.958;2022-08-06T03:36:50;17.60;99.90
3202;DHT22;34843;48.744;8.958;2022-08-06T03:39:17;17.60;99.90
3202;DHT22;34843;48.744;8.958;2022-08-06T03:41:44;17.60;99.90
3202;DHT22;34843;48.744;8.958;2022-08-06T03:44:10;17.60;99.90
3202;DHT22;34843;48.744;8.958;2022-08-06T03:49:04;17.60;99.90
3202;DHT22;34843;48.744;8.958;2022-08-06T03:51:31;17.70;99.90
3202;DHT22;34843;48.744;8.958;2022-08-06T03:53:59;17.70;99.90
3202;DHT22;34843;48.744;8.958;2022-08-06T03:56:27;17.60;99.90
3202;DHT22;34843;48.744;8.958;2022-08-06T03:58:54;17.60;99.90
3202;DHT22;34843;48.744;8.958;2022-08-06T04:01:23;17.60;99.90
3202;DHT22;34843;48.744;8.958;2022-08-06T04:03:51;17.60;99.90
3202;DHT22;34843;48.744;8.958;2022-08-06T04:06:19;17.60;99.90
3202;DHT22;34843;48.744;8.958;2022-08-06T04:08:46;17.70;99.90
3202;DHT22;34843;48.744;8.958;2022-08-06T04:11:12;17.70;99.90
3202;DHT22;34843;48.744;8.958;2022-08-06T04:13:39;17.70;99.90
3202;DHT22;34843;48.744;8.958;2022-08-06T04:16:06;17.60;99.90
3202;DHT22;34843;48.744;8.958;2022-08-06T04:18:34;17.60;99.90
3202;DHT22;34843;48.744;8.958;2022-08-06T04:21:03;17.60;99.90
3202;DHT22;34843;48.744;8.958;2022-08-06T04:23:29;17.60;99.90
3202;DHT22;34843;48.744;8.958;2022-08-06T04:25:57;17.50;99.90
3202;DHT22;34843;48.744;8.958;2022-08-06T04:28:24;17.50;99.90
3202;DHT22;34843;48.744;8.958;2022-08-06T04:30:53;17.50;99.90
3202;DHT22;34843;48.744;8.958;2022-08-06T04:33:21;17.50;99.90
3202;DHT22;34843;48.744;8.958;2022-08-06T04:35:48;17.40;99.90
3202;DHT22;34843;48.744;8.958;2022-08-06T04:38:15;17.40;99.90
3202;DHT22;34843;48.744;8.958;2022-08-06T04:40:42;17.40;99.90
3202;DHT22;34843;48.744;8.958;2022-08-06T04:43:10;17.40;99.90
3202;DHT22;34843;48.744;8.958;2022-08-06T04:45:43;17.40;99.90
3202;DHT22;34843;48.744;8.958;2022-08-06T04:48:11;17.40;99.90
3202;DHT22;34843;48.744;8.958;2022-08-06T04:50:37;17.50;99.90
3202;DHT22;34843;48.744;8.958;2022-08-06T04:53:11;17.50;99.90
3202;DHT22;34843;48.744;8.958;2022-08-06T04:55:37;17.40;99.90
3202;DHT22;34843;48.744;8.958;2022-08-06T04:58:05;17.40;99.90
3202;DHT22;34843;48.744;8.958;2022-08-06T05:00:32;17.50;99.90
3202;DHT22;34843;48.744;8.958;2022-08-06T05:02:58;17.40;99.90
3202;DHT22;34843;48.744;8.958;2022-08-06T05:05:24;17.40;99.90
3202;DHT22;34843;48.744;8.958;2022-08-06T05:07:54;17.40;99.90
3202;DHT22;34843;48.744;8.958;2022-08-06T05:10:21;17.30;99.90
3202;DHT22;34843;48.744;8.958;2022-08-06T05:12:53;17.30;99.90
3202;DHT22;34843;48.744;8.958;2022-08-06T05:15:32;17.30;99.90
3202;DHT22;34843;48.744;8.958;2022-08-06T05:18:04;17.40;99.90
3202;DHT22;34843;48.744;8.958;2022-08-06T05:20:35;18.30;99.90
3202;DHT22;34843;48.744;8.958;2022-08-06T05:23:04;18.40;99.90
3202;DHT22;34843;48.744;8.958;2022-08-06T05:25:32;18.90;99.90
3202;DHT22;34843;48.744;8.958;2022-08-06T05:27:59;19.10;99.90
3202;DHT22;34843;48.744;8.958;2022-08-06T05:30:25;19.70;99.90
3202;DHT22;34843;48.744;8.958;2022-08-06T05:32:50;20.10;99.90
3202;DHT22;34843;48.744;8.958;2022-08-06T05:35:16;20.10;99.90
3202;DHT22;34843;48.744;8.958;2022-08-06T05:37:41;20.40;99.90
3202;DHT22;34843;48.744;8.958;2022-08-06T05:40:08;20.80;99.90
3202;DHT22;34843;48.744;8.958;2022-08-06T05:42:34;21.00;99.90
3202;DHT22;34843;48.744;8.958;2022-08-06T05:44:59;21.30;99.90
3202;DHT22;34843;48.744;8.958;2022-08-06T05:47:31;21.00;99.90
3202;DHT22;34843;48.744;8.958;2022-08-06T05:50:07;20.80;99.90
3202;DHT22;34843;48.744;8.958;2022-08-06T05:57:54;20.80;99.90
3202;DHT22;34843;48.744;8.958;2022-08-06T06:00:24;21.10;99.90
3202;DHT22;34843;48.744;8.958;2022-08-06T06:02:52;21.00;99.90
3202;DHT22;34843;48.744;8.958;2022-08-06T06:05:20;20.50;99.90
3202;DHT22;34843;48.744;8.958;2022-08-06T06:07:47;20.80;99.90
3202;DHT22;34843;48.744;8.958;2022-08-06T06:10:14;21.20;99.90
3202;DHT22;34843;48.744;8.958;2022-08-06T06:12:40;21.90;99.90
3202;DHT22;34843;48.744;8.958;2022-08-06T06:15:09;22.40;99.90
3202;DHT22;34843;48.744;8.958;2022-08-06T06:18:01;22.70;99.90
3202;DHT22;34843;48.744;8.958;2022-08-06T06:25:27;21.80;99.90
3202;DHT22;34843;48.744;8.958;2022-08-06T06:28:28;21.90;99.90
3202;DHT22;34843;48.744;8.958;2022-08-06T06:31:14;21.50;99.90
3202;DHT22;34843;48.744;8.958;2022-08-06T06:36:25;21.30;99.90
3202;DHT22;34843;48.744;8.958;2022-08-06T06:41:57;21.10;99.90
3202;DHT22;34843;48.744;8.958;2022-08-06T06:47:02;20.70;99.90
3202;DHT22;34843;48.744;8.958;2022-08-06T06:49:52;21.10;99.90
3202;DHT22;34843;48.744;8.958;2022-08-06T06:52:29;21.20;99.90
3202;DHT22;34843;48.744;8.958;2022-08-06T06:55:05;20.70;99.90
3202;DHT22;34843;48.744;8.958;2022-08-06T06:57:34;20.50;99.90
3202;DHT22;34843;48.744;8.958;2022-08-06T07:00:03;20.50;99.90
3202;DHT22;34843;48.744;8.958;2022-08-06T07:02:31;20.20;99.90
3202;DHT22;34843;48.744;8.958;2022-08-06T07:05:02;20.10;99.90
3202;DHT22;34843;48.744;8.958;2022-08-06T07:07:33;19.80;99.90
3202;DHT22;34843;48.744;8.958;2022-08-06T07:10:00;19.90;99.90
3202;DHT22;34843;48.744;8.958;2022-08-06T07:12:28;19.90;99.90
3202;DHT22;34843;48.744;8.958;2022-08-06T07:14:56;20.00;99.90
3202;DHT22;34843;48.744;8.958;2022-08-06T07:17:24;20.20;99.90
3202;DHT22;34843;48.744;8.958;2022-08-06T07:19:52;20.20;99.90
3202;DHT22;34843;48.744;8.958;2022-08-06T07:22:20;20.50;99.90
3202;DHT22;34843;48.744;8.958;2022-08-06T07:24:48;20.60;99.90
3202;DHT22;34843;48.744;8.958;2022-08-06T07:27:16;20.50;99.90
3202;DHT22;34843;48.744;8.958;2022-08-06T07:29:41;20.10;99.90
3202;DHT22;34843;48.744;8.958;2022-08-06T07:32:09;20.10;99.90
3202;DHT22;34843;48.744;8.958;2022-08-06T07:34:35;19.90;99.90
3202;DHT22;34843;48.744;8.958;2022-08-06T07:37:01;20.00;99.90
3202;DHT22;34843;48.744;8.958;2022-08-06T07:39:30;20.00;99.90
3202;DHT22;34843;48.744;8.958;2022-08-06T07:42:00;19.60;99.90
3202;DHT22;34843;48.744;8.958;2022-08-06T07:44:27;19.90;99.90
3202;DHT22;34843;48.744;8.958;2022-08-06T07:46:58;20.30;99.90
3202;DHT22;34843;48.744;8.958;2022-08-06T07:49:29;20.40;99.90
3202;DHT22;34843;48.744;8.958;2022-08-06T07:51:57;20.80;99.90
3202;DHT22;34843;48.744;8.958;2022-08-06T07:54:24;20.90;99.90
3202;DHT22;34843;48.744;8.958;2022-08-06T07:56:54;20.80;99.90
3202;DHT22;34843;48.744;8.958;2022-08-06T07:59:20;20.90;99.90
3202;DHT22;34843;48.744;8.958;2022-08-06T08:01:47;20.90;99.90
3202;DHT22;34843;48.744;8.958;2022-08-06T08:04:13;21.00;99.90
3202;DHT22;34843;48.744;8.958;2022-08-06T08:07:00;21.10;99.90
3202;DHT22;34843;48.744;8.958;2022-08-06T08:09:26;21.20;99.90
3202;DHT22;34843;48.744;8.958;2022-08-06T08:11:53;20.80;99.90
3202;DHT22;34843;48.744;8.958;2022-08-06T08:14:21;20.50;99.90
3202;DHT22;34843;48.744;8.958;2022-08-06T08:16:48;20.30;99.90
3202;DHT22;34843;48.744;8.958;2022-08-06T08:19:24;20.30;99.90
3202;DHT22;34843;48.744;8.958;2022-08-06T08:21:54;20.30;99.90
3202;DHT22;34843;48.744;8.958;2022-08-06T08:24:22;20.20;99.90
3202;DHT22;34843;48.744;8.958;2022-08-06T08:26:48;20.00;99.90
3202;DHT22;34843;48.744;8.958;2022-08-06T08:29:13;19.70;99.90
3202;DHT22;34843;48.744;8.958;2022-08-06T08:31:39;19.70;99.90
3202;DHT22;34843;48.744;8.958;2022-08-06T08:34:04;19.70;99.90
3202;DHT22;34843;48.744;8.958;2022-08-06T08:36:31;19.80;99.90
3202;DHT22;34843;48.744;8.958;2022-08-06T08:38:57;19.70;99.90
3202;DHT22;34843;48.744;8.958;2022-08-06T08:41:33;19.70;99.90
3202;DHT22;34843;48.744;8.958;2022-08-06T08:44:05;19.80;99.90
3202;DHT22;34843;48.744;8.958;2022-08-06T08:46:34;19.80;99.90
3202;DHT22;34843;48.744;8.958;2022-08-06T08:49:02;19.90;99.90
3202;DHT22;34843;48.744;8.958;2022-08-06T08:51:28;19.90;99.90
3202;DHT22;34843;48.744;8.958;2022-08-06T08:53:57;20.00;99.90
3202;DHT22;34843;48.744;8.958;2022-08-06T08:56:25;20.00;99.90
3202;DHT22;34843;48.744;8.958;2022-08-06T08:58:51;20.10;99.90
3202;DHT22;34843;48.744;8.958;2022-08-06T09:01:17;20.30;99.90
3202;DHT22;34843;48.744;8.958;2022-08-06T09:03:44;20.40;99.90
3202;DHT22;34843;48.744;8.958;2022-08-06T09:06:10;20.40;99.90
3202;DHT22;34843;48.744;8.958;2022-08-06T09:08:36;20.40;99.90
3202;DHT22;34843;48.744;8.958;2022-08-06T09:11:03;20.60;99.90
3202;DHT22;34843;48.744;8.958;2022-08-06T09:13:29;20.70;99.90
3202;DHT22;34843;48.744;8.958;2022-08-06T09:15:56;21.00;99.90
3202;DHT22;34843;48.744;8.958;2022-08-06T09:18:23;21.20;99.90
3202;DHT22;34843;48.744;8.958;2022-08-06T09:20:49;21.00;99.90
3202;DHT22;34843;48.744;8.958;2022-08-06T09:23:15;21.10;99.90
3202;DHT22;34843;48.744;8.958;2022-08-06T09:25:53;21.00;99.90
3202;DHT22;34843;48.744;8.958;2022-08-06T09:28:40;20.90;99.90
3202;DHT22;34843;48.744;8.958;2022-08-06T09:31:14;21.00;99.90
3202;DHT22;34843;48.744;8.958;2022-08-06T09:33:41;21.10;99.90
3202;DHT22;34843;48.744;8.958;2022-08-06T09:36:13;21.00;99.90
3202;DHT22;34843;48.744;8.958;2022-08-06T09:38:48;20.90;99.90
3202;DHT22;34843;48.744;8.958;2022-08-06T09:41:15;20.80;99.90
3202;DHT22;34843;48.744;8.958;2022-08-06T09:43:45;20.90;99.90
3202;DHT22;34843;48.744;8.958;2022-08-06T09:46:12;21.00;99.90
3202;DHT22;34843;48.744;8.958;2022-08-06T09:48:59;21.30;99.90
3202;DHT22;34843;48.744;8.958;2022-08-06T09:51:25;21.60;99.90
3202;DHT22;34843;48.744;8.958;2022-08-06T09:53:53;21.70;99.90
3202;DHT22;34843;48.744;8.958;2022-08-06T09:56:19;21.90;99.90
3202;DHT22;34843;48.744;8.958;2022-08-06T09:58:45;22.00;99.90
3202;DHT22;34843;48.744;8.958;2022-08-06T10:01:16;21.90;99.90
3202;DHT22;34843;48.744;8.958;2022-08-06T10:03:42;21.70;99.90
3202;DHT22;34843;48.744;8.958;2022-08-06T10:06:14;21.50;99.90
3202;DHT22;34843;48.744;8.958;2022-08-06T10:08:41;21.70;99.90
3202;DHT22;34843;48.744;8.958;2022-08-06T10:11:08;21.90;99.90
3202;DHT22;34843;48.744;8.958;2022-08-06T10:13:35;22.00;99.90
3202;DHT22;34843;48.744;8.958;2022-08-06T10:16:18;22.00;99.90
3202;DHT22;34843;48.744;8.958;2022-08-06T10:18:46;21.80;99.90
3202;DHT22;34843;48.744;8.958;2022-08-06T10:21:23;21.80;99.90
3202;DHT22;34843;48.744;8.958;2022-08-06T10:23:53;21.80;99.90
3202;DHT22;34843;48.744;8.958;2022-08-06T10:26:26;22.00;99.90
3202;DHT22;34843;48.744;8.958;2022-08-06T10:28:52;22.00;99.90
3202;DHT22;34843;48.744;8.958;2022-08-06T10:31:20;21.80;99.90
3202;DHT22;34843;48.744;8.958;2022-08-06T10:36:17;21.90;99.90
3202;DHT22;34843;48.744;8.958;2022-08-06T10:38:50;21.90;99.90
3202;DHT22;34843;48.744;8.958;2022-08-06T10:41:17;21.90;99.90
3202;DHT22;34843;48.744;8.958;2022-08-06T10:43:44;21.70;99.90
3202;DHT22;34843;48.744;8.958;2022-08-06T10:46:11;21.30;99.90
3202;DHT22;34843;48.744;8.958;2022-08-06T10:48:42;21.10;99.90
3202;DHT22;34843;48.744;8.958;2022-08-06T10:51:09;20.90;99.90
3202;DHT22;34843;48.744;8.958;2022-08-06T10:53:37;21.00;99.90
3202;DHT22;34843;48.744;8.958;2022-08-06T10:56:05;21.10;99.90
3202;DHT22;34843;48.744;8.958;2022-08-06T10:58:32;21.20;99.90
3202;DHT22;34843;48.744;8.958;2022-08-06T11:01:00;21.30;99.90
3202;DHT22;34843;48.744;8.958;2022-08-06T11:09:41;21.90;99.90
3202;DHT22;34843;48.744;8.958;2022-08-06T11:14:55;21.90;99.90
3202;DHT22;34843;48.744;8.958;2022-08-06T11:17:22;22.00;99.90
3202;DHT22;34843;48.744;8.958;2022-08-06T11:19:49;22.00;99.90
3202;DHT22;34843;48.744;8.958;2022-08-06T11:25:00;22.20;99.90
3202;DHT22;34843;48.744;8.958;2022-08-06T11:27:49;22.20;99.90
3202;DHT22;34843;48.744;8.958;2022-08-06T11:30:15;22.30;99.90
3202;DHT22;34843;48.744;8.958;2022-08-06T11:38:10;22.50;99.90
3202;DHT22;34843;48.744;8.958;2022-08-06T11:40:58;22.70;99.90
3202;DHT22;34843;48.744;8.958;2022-08-06T11:49:12;23.20;99.90
3202;DHT22;34843;48.744;8.958;2022-08-06T11:56:34;22.50;99.90
3202;DHT22;34843;48.744;8.958;2022-08-06T11:59:13;22.40;99.90
3202;DHT22;34843;48.744;8.958;2022-08-06T12:01:46;22.50;99.90
3202;DHT22;34843;48.744;8.958;2022-08-06T12:07:24;22.40;99.90
3202;DHT22;34843;48.744;8.958;2022-08-06T12:12:42;22.60;99.90
3202;DHT22;34843;48.744;8.958;2022-08-06T12:20:38;23.00;99.90
3202;DHT22;34843;48.744;8.958;2022-08-06T12:23:05;22.80;99.90
3202;DHT22;34843;48.744;8.958;2022-08-06T12:25:37;22.80;99.90
3202;DHT22;34843;48.744;8.958;2022-08-06T12:28:05;22.90;99.90
3202;DHT22;34843;48.744;8.958;2022-08-06T12:30:45;22.20;99.90
3202;DHT22;34843;48.744;8.958;2022-08-06T12:33:11;23.00;99.90
3202;DHT22;34843;48.744;8.958;2022-08-06T12:35:51;23.00;99.90
3202;DHT22;34843;48.744;8.958;2022-08-06T12:38:18;22.90;99.90
3202;DHT22;34843;48.744;8.958;2022-08-06T12:40:58;23.10;99.90
3202;DHT22;34843;48.744;8.958;2022-08-06T12:43:26;23.10;99.90
3202;DHT22;34843;48.744;8.958;2022-08-06T12:46:04;23.30;99.90
3202;DHT22;34843;48.744;8.958;2022-08-06T12:48:31;23.30;99.90
3202;DHT22;34843;48.744;8.958;2022-08-06T12:51:03;23.40;99.90
3202;DHT22;34843;48.744;8.958;2022-08-06T12:53:29;23.30;99.90
3202;DHT22;34843;48.744;8.958;2022-08-06T12:55:56;23.20;99.90
3202;DHT22;34843;48.744;8.958;2022-08-06T12:58:37;23.10;99.90
3202;DHT22;34843;48.744;8.958;2022-08-06T13:01:05;23.00;99.90
3202;DHT22;34843;48.744;8.958;2022-08-06T13:03:32;23.10;99.90
3202;DHT22;34843;48.744;8.958;2022-08-06T13:06:02;23.00;99.90
3202;DHT22;34843;48.744;8.958;2022-08-06T13:08:29;23.10;99.90
3202;DHT22;34843;48.744;8.958;2022-08-06T13:10:56;23.00;99.90
3202;DHT22;34843;48.744;8.958;2022-08-06T13:13:41;23.10;99.90
3202;DHT22;34843;48.744;8.958;2022-08-06T13:16:11;23.20;99.90
3202;DHT22;34843;48.744;8.958;2022-08-06T13:18:39;23.30;99.90
3202;DHT22;34843;48.744;8.958;2022-08-06T13:21:22;23.40;99.90
3202;DHT22;34843;48.744;8.958;2022-08-06T13:23:49;23.40;99.90
3202;DHT22;34843;48.744;8.958;2022-08-06T13:26:18;23.40;99.90
3202;DHT22;34843;48.744;8.958;2022-08-06T13:31:28;23.40;99.90
3202;DHT22;34843;48.744;8.958;2022-08-06T13:34:05;23.50;99.90
3202;DHT22;34843;48.744;8.958;2022-08-06T13:36:32;23.60;99.90
3202;DHT22;34843;48.744;8.958;2022-08-06T13:38:58;23.70;99.90
3202;DHT22;34843;48.744;8.958;2022-08-06T13:41:29;23.60;99.90
3202;DHT22;34843;48.744;8.958;2022-08-06T13:43:58;23.60;99.90
3202;DHT22;34843;48.744;8.958;2022-08-06T13:46:26;23.70;99.90
3202;DHT22;34843;48.744;8.958;2022-08-06T13:48:54;23.70;99.90
3202;DHT22;34843;48.744;8.958;2022-08-06T13:51:22;23.70;99.90
3202;DHT22;34843;48.744;8.958;2022-08-06T13:53:48;23.80;99.90
3202;DHT22;34843;48.744;8.958;2022-08-06T13:56:14;23.70;99.90
3202;DHT22;34843;48.744;8.958;2022-08-06T13:58:41;23.60;99.90
3202;DHT22;34843;48.744;8.958;2022-08-06T14:01:07;23.60;99.90
3202;DHT22;34843;48.744;8.958;2022-08-06T14:03:32;23.70;99.90
3202;DHT22;34843;48.744;8.958;2022-08-06T14:05:58;23.60;99.90
3202;DHT22;34843;48.744;8.958;2022-08-06T14:08:24;23.60;99.90
3202;DHT22;34843;48.744;8.958;2022-08-06T14:10:49;23.50;99.90
3202;DHT22;34843;48.744;8.958;2022-08-06T14:13:15;23.60;99.90
3202;DHT22;34843;48.744;8.958;2022-08-06T14:15:45;23.70;99.90
3202;DHT22;34843;48.744;8.958;2022-08-06T14:18:12;23.70;99.90
3202;DHT22;34843;48.744;8.958;2022-08-06T14:20:38;23.80;99.90
3202;DHT22;34843;48.744;8.958;2022-08-06T14:23:03;23.70;99.90
3202;DHT22;34843;48.744;8.958;2022-08-06T14:25:29;23.70;99.90
3202;DHT22;34843;48.744;8.958;2022-08-06T14:27:55;23.90;99.90
3202;DHT22;34843;48.744;8.958;2022-08-06T14:30:21;24.00;99.90
3202;DHT22;34843;48.744;8.958;2022-08-06T14:32:47;24.20;99.90
3202;DHT22;34843;48.744;8.958;2022-08-06T14:35:14;24.30;99.90
3202;DHT22;34843;48.744;8.958;2022-08-06T14:37:40;24.30;99.90
3202;DHT22;34843;48.744;8.958;2022-08-06T14:40:08;24.20;99.90
3202;DHT22;34843;48.744;8.958;2022-08-06T14:42:34;23.90;99.90
3202;DHT22;34843;48.744;8.958;2022-08-06T14:45:18;24.00;99.90
3202;DHT22;34843;48.744;8.958;2022-08-06T14:47:43;24.00;99.90
3202;DHT22;34843;48.744;8.958;2022-08-06T14:50:09;24.00;99.90
3202;DHT22;34843;48.744;8.958;2022-08-06T14:52:34;24.00;99.90
3202;DHT22;34843;48.744;8.958;2022-08-06T14:55:00;24.10;99.90
3202;DHT22;34843;48.744;8.958;2022-08-06T14:57:26;24.20;99.90
3202;DHT22;34843;48.744;8.958;2022-08-06T14:59:52;24.00;99.90
3202;DHT22;34843;48.744;8.958;2022-08-06T15:02:22;24.00;99.90
3202;DHT22;34843;48.744;8.958;2022-08-06T15:04:49;24.00;99.90
3202;DHT22;34843;48.744;8.958;2022-08-06T15:07:15;23.80;99.90
3202;DHT22;34843;48.744;8.958;2022-08-06T15:09:40;23.90;99.90
3202;DHT22;34843;48.744;8.958;2022-08-06T15:12:06;24.10;99.90
3202;DHT22;34843;48.744;8.958;2022-08-06T15:14:32;24.10;99.90
3202;DHT22;34843;48.744;8.958;2022-08-06T15:16:57;24.30;99.90
3202;DHT22;34843;48.744;8.958;2022-08-06T15:19:23;24.40;99.90
3202;DHT22;34843;48.744;8.958;2022-08-06T15:21:49;24.40;99.90
3202;DHT22;34843;48.744;8.958;2022-08-06T15:24:14;24.40;99.90
3202;DHT22;34843;48.744;8.958;2022-08-06T15:26:40;24.30;99.90
3202;DHT22;34843;48.744;8.958;2022-08-06T15:29:06;24.20;99.90
3202;DHT22;34843;48.744;8.958;2022-08-06T15:31:33;24.10;99.90
3202;DHT22;34843;48.744;8.958;2022-08-06T15:33:59;24.20;99.90
3202;DHT22;34843;48.744;8.958;2022-08-06T15:36:25;24.20;99.90
3202;DHT22;34843;48.744;8.958;2022-08-06T15:38:51;24.20;99.90
3202;DHT22;34843;48.744;8.958;2022-08-06T15:41:20;24.10;99.90
3202;DHT22;34843;48.744;8.958;2022-08-06T15:43:52;24.10;99.90
3202;DHT22;34843;48.744;8.958;2022-08-06T15:46:18;24.10;99.90
3202;DHT22;34843;48.744;8.958;2022-08-06T15:48:44;24.20;99.90
3202;DHT22;34843;48.744;8.958;2022-08-06T15:51:10;24.30;99.90
3202;DHT22;34843;48.744;8.958;2022-08-06T15:53:36;24.40;99.90
3202;DHT22;34843;48.744;8.958;2022-08-06T15:56:01;24.40;99.90
3202;DHT22;34843;48.744;8.958;2022-08-06T15:58:27;24.40;99.90
3202;DHT22;34843;48.744;8.958;2022-08-06T16:00:53;24.40;99.90
3202;DHT22;34843;48.744;8.958;2022-08-06T16:03:18;24.40;99.90
3202;DHT22;34843;48.744;8.958;2022-08-06T16:05:44;24.40;99.90
3202;DHT22;34843;48.744;8.958;2022-08-06T16:08:11;24.40;99.90
3202;DHT22;34843;48.744;8.958;2022-08-06T16:10:42;24.40;99.90
3202;DHT22;34843;48.744;8.958;2022-08-06T16:13:08;24.50;99.90
3202;DHT22;34843;48.744;8.958;2022-08-06T16:15:35;24.40;99.40
3202;DHT22;34843;48.744;8.958;2022-08-06T16:18:00;24.40;99.70
3202;DHT22;34843;48.744;8.958;2022-08-06T16:20:26;24.40;99.90
3202;DHT22;34843;48.744;8.958;2022-08-06T16:22:53;24.30;99.20
3202;DHT22;34843;48.744;8.958;2022-08-06T16:25:20;24.30;98.80
3202;DHT22;34843;48.744;8.958;2022-08-06T16:27:46;24.20;99.00
3202;DHT22;34843;48.744;8.958;2022-08-06T16:30:12;24.10;99.00
3202;DHT22;34843;48.744;8.958;2022-08-06T16:32:38;24.10;99.30
3202;DHT22;34843;48.744;8.958;2022-08-06T16:35:04;24.10;99.20
3202;DHT22;34843;48.744;8.958;2022-08-06T16:37:30;24.00;98.20
3202;DHT22;34843;48.744;8.958;2022-08-06T16:39:55;23.90;98.00
3202;DHT22;34843;48.744;8.958;2022-08-06T16:42:21;23.90;98.20
3202;DHT22;34843;48.744;8.958;2022-08-06T16:44:47;24.00;98.30
3202;DHT22;34843;48.744;8.958;2022-08-06T16:47:13;24.00;97.90
3202;DHT22;34843;48.744;8.958;2022-08-06T16:49:38;23.90;97.70
3202;DHT22;34843;48.744;8.958;2022-08-06T16:52:04;23.90;97.70
3202;DHT22;34843;48.744;8.958;2022-08-06T16:54:29;23.90;98.10
3202;DHT22;34843;48.744;8.958;2022-08-06T16:56:55;23.90;98.20
3202;DHT22;34843;48.744;8.958;2022-08-06T16:59:21;23.90;97.70
3202;DHT22;34843;48.744;8.958;2022-08-06T17:01:46;23.70;97.30
3202;DHT22;34843;48.744;8.958;2022-08-06T17:04:32;23.70;97.60
3202;DHT22;34843;48.744;8.958;2022-08-06T17:06:57;23.60;98.00
3202;DHT22;34843;48.744;8.958;2022-08-06T17:09:25;23.70;97.30